Time;durP1;ratioP1;P1;durP2;ratioP2;P2;SDS_P1;SDS_P2;PMS_P1;PMS_P2;Temp;Humidity;BMP_temperature;BMP_pressure;BME280_temperature;BME280_humidity;BME280_pressure;Samples;Min_cycle;Max_cycle;Signal;HPM_P1;HPM_P2
2020/12/03 00:01:01;;;;;;;54.97;38.20;;;;;;;;;;5058965;28;20451;-61
2020/12/03 00:03:29;;;;;;;63.00;37.67;;;;;;;;;;5058566;28;20468;-61
2020/12/03 00:06:01;;;;;;;59.60;38.37;;;;;;;;;;5058942;28;20491;-62
2020/12/03 00:08:32;;;;;;;55.73;34.67;;;;;;;;;;5058469;28;20509;-62
2020/12/03 00:11:00;;;;;;;57.73;38.23;;;;;;;;;;5057375;28;20618;-62
2020/12/03 00:13:27;;;;;;;58.77;39.77;;;;;;;;;;5059198;28;20781;-61
2020/12/03 00:15:56;;;;;;;64.17;37.80;;;;;;;;;;5058223;28;20469;-61
2020/12/03 00:18:22;;;;;;;59.90;39.00;;;;;;;;;;5059004;28;20806;-62
2020/12/03 00:20:47;;;;;;;66.53;39.73;;;;;;;;;;5058648;28;20479;-63
2020/12/03 00:23:13;;;;;;;59.43;38.43;;;;;;;;;;5053063;28;20471;-62
2020/12/03 00:25:38;;;;;;;59.17;37.83;;;;;;;;;;5039208;28;20216;-61
2020/12/03 00:28:03;;;;;;;62.03;37.77;;;;;;;;;;5038672;28;20243;-62
2020/12/03 00:30:28;;;;;;;67.27;39.03;;;;;;;;;;5038564;28;20222;-61
2020/12/03 00:32:54;;;;;;;62.73;38.67;;;;;;;;;;5038578;28;20559;-61
2020/12/03 00:35:21;;;;;;;63.43;38.27;;;;;;;;;;5038584;28;20215;-62
2020/12/03 00:37:47;;;;;;;54.50;36.47;;;;;;;;;;5037847;28;20211;-62
2020/12/03 00:40:12;;;;;;;66.87;40.47;;;;;;;;;;5038471;28;20460;-62
2020/12/03 00:42:38;;;;;;;56.13;39.43;;;;;;;;;;5038759;28;20217;-62
2020/12/03 00:45:05;;;;;;;59.87;37.40;;;;;;;;;;5038091;28;20220;-63
2020/12/03 00:47:31;;;;;;;60.40;36.93;;;;;;;;;;5038367;28;20275;-62
2020/12/03 00:49:56;;;;;;;55.00;36.17;;;;;;;;;;5037877;28;20511;-62
2020/12/03 00:52:22;;;;;;;59.83;36.50;;;;;;;;;;5038501;28;20226;-62
2020/12/03 00:54:47;;;;;;;69.20;38.80;;;;;;;;;;5037857;28;20212;-61
2020/12/03 00:57:12;;;;;;;61.77;38.07;;;;;;;;;;5038374;28;20308;-63
2020/12/03 00:59:38;;;;;;;73.17;39.97;;;;;;;;;;5038420;28;20226;-61
2020/12/03 01:02:07;;;;;;;62.20;39.17;;;;;;;;;;5053023;28;20223;-62
2020/12/03 01:04:32;;;;;;;55.73;36.17;;;;;;;;;;5057676;28;20576;-61
2020/12/03 01:06:57;;;;;;;56.57;37.43;;;;;;;;;;5057737;28;20541;-62
2020/12/03 01:09:22;;;;;;;58.07;37.47;;;;;;;;;;5057732;28;20219;-62
2020/12/03 01:11:47;;;;;;;64.57;38.87;;;;;;;;;;5040080;28;20220;-62
2020/12/03 01:14:13;;;;;;;57.90;37.67;;;;;;;;;;5057484;28;20714;-62
2020/12/03 01:16:38;;;;;;;62.53;36.20;;;;;;;;;;5057675;28;20231;-62
2020/12/03 01:19:03;;;;;;;57.63;35.27;;;;;;;;;;5057483;28;20226;-62
2020/12/03 01:21:29;;;;;;;58.30;36.90;;;;;;;;;;5056947;28;20650;-62
2020/12/03 01:23:54;;;;;;;62.83;39.77;;;;;;;;;;5044744;28;20310;-62
2020/12/03 01:26:19;;;;;;;60.53;38.13;;;;;;;;;;5037008;28;20214;-62
2020/12/03 01:28:45;;;;;;;68.10;40.83;;;;;;;;;;5037635;28;20222;-62
2020/12/03 01:31:11;;;;;;;66.10;37.93;;;;;;;;;;5037460;28;20226;-62
2020/12/03 01:33:37;;;;;;;59.53;37.70;;;;;;;;;;5037904;28;20220;-63
2020/12/03 01:36:02;;;;;;;59.53;37.57;;;;;;;;;;5037401;28;20223;-62
2020/12/03 01:38:28;;;;;;;57.60;35.57;;;;;;;;;;5037435;28;20475;-61
2020/12/03 01:40:53;;;;;;;61.13;37.17;;;;;;;;;;5037108;28;20244;-62
2020/12/03 01:43:18;;;;;;;65.70;41.07;;;;;;;;;;5037624;28;20533;-62
2020/12/03 01:45:46;;;;;;;64.13;38.13;;;;;;;;;;5037172;28;20655;-62
2020/12/03 01:48:30;;;;;;;61.23;38.00;;;;;;;;;;5037563;28;20219;-62
2020/12/03 01:50:56;;;;;;;65.30;38.77;;;;;;;;;;5037093;28;20458;-62
2020/12/03 01:53:21;;;;;;;62.70;38.97;;;;;;;;;;5037695;28;20469;-61
2020/12/03 01:55:48;;;;;;;73.40;39.53;;;;;;;;;;5037160;28;20803;-62
2020/12/03 01:58:20;;;;;;;59.87;38.20;;;;;;;;;;5037672;28;20289;-62
2020/12/03 02:00:45;;;;;;;60.13;39.30;;;;;;;;;;5041692;28;20469;-61
2020/12/03 02:03:10;;;;;;;55.20;38.30;;;;;;;;;;5057615;28;20533;-61
2020/12/03 02:05:36;;;;;;;59.97;38.60;;;;;;;;;;5057561;28;20525;-61
2020/12/03 02:08:01;;;;;;;64.33;38.90;;;;;;;;;;5057103;28;20298;-62
2020/12/03 02:10:26;;;;;;;69.97;41.90;;;;;;;;;;5057757;28;20215;-61
2020/12/03 02:12:52;;;;;;;65.03;38.90;;;;;;;;;;5057389;28;20297;-61
2020/12/03 02:15:19;;;;;;;71.40;41.27;;;;;;;;;;5057605;28;20212;-62
2020/12/03 02:17:44;;;;;;;71.47;38.20;;;;;;;;;;5057180;28;20236;-63
2020/12/03 02:20:15;;;;;;;64.10;38.73;;;;;;;;;;5056746;28;20456;-62
2020/12/03 02:22:41;;;;;;;65.30;38.97;;;;;;;;;;5055653;28;20554;-61
2020/12/03 02:25:08;;;;;;;57.43;36.73;;;;;;;;;;5037584;28;20454;-61
2020/12/03 02:27:34;;;;;;;59.70;37.10;;;;;;;;;;5036253;28;20295;-61
2020/12/03 02:30:00;;;;;;;59.67;38.57;;;;;;;;;;5037118;28;20472;-61
2020/12/03 02:32:25;;;;;;;60.77;41.67;;;;;;;;;;5038656;28;20468;-61
2020/12/03 02:34:50;;;;;;;64.30;40.63;;;;;;;;;;5040178;28;20293;-62
2020/12/03 02:37:15;;;;;;;64.13;39.03;;;;;;;;;;5041174;28;20214;-61
2020/12/03 02:39:41;;;;;;;59.30;40.23;;;;;;;;;;5041430;28;20249;-62
2020/12/03 02:42:09;;;;;;;61.73;38.87;;;;;;;;;;5040490;28;20244;-61
2020/12/03 02:44:37;;;;;;;70.87;42.97;;;;;;;;;;5040198;28;20286;-62
2020/12/03 02:47:03;;;;;;;78.10;43.80;;;;;;;;;;5039341;28;20479;-62
2020/12/03 02:49:28;;;;;;;63.60;40.60;;;;;;;;;;5041289;28;20448;-62
2020/12/03 02:51:53;;;;;;;66.90;41.73;;;;;;;;;;5040337;28;20234;-62
2020/12/03 02:54:18;;;;;;;72.13;41.93;;;;;;;;;;5040812;28;20233;-62
2020/12/03 02:56:44;;;;;;;63.60;41.27;;;;;;;;;;5040612;28;20296;-62
2020/12/03 02:59:10;;;;;;;67.50;42.03;;;;;;;;;;5040494;28;20265;-61
2020/12/03 03:01:35;;;;;;;67.07;42.00;;;;;;;;;;5052161;28;20279;-62
2020/12/03 03:04:04;;;;;;;61.70;42.17;;;;;;;;;;5060169;28;20503;-61
2020/12/03 03:06:31;;;;;;;70.10;43.77;;;;;;;;;;5060014;28;20214;-61
2020/12/03 03:08:56;;;;;;;71.43;42.50;;;;;;;;;;5059934;28;20453;-62
2020/12/03 03:11:21;;;;;;;72.53;43.50;;;;;;;;;;5060282;28;20457;-62
2020/12/03 03:13:47;;;;;;;73.87;42.50;;;;;;;;;;5060557;28;20222;-62
2020/12/03 03:16:12;;;;;;;69.83;40.60;;;;;;;;;;5059257;28;20256;-62
2020/12/03 03:18:37;;;;;;;73.20;42.17;;;;;;;;;;5059819;28;20592;-62
2020/12/03 03:21:02;;;;;;;65.70;41.70;;;;;;;;;;5059874;28;20318;-61
2020/12/03 03:23:28;;;;;;;77.97;46.07;;;;;;;;;;5051454;28;20214;-61
2020/12/03 03:25:53;;;;;;;69.43;41.50;;;;;;;;;;5039826;28;20234;-62
2020/12/03 03:28:18;;;;;;;75.13;42.37;;;;;;;;;;5039579;28;20214;-62
2020/12/03 03:30:44;;;;;;;66.43;41.07;;;;;;;;;;5039705;28;20275;-61
2020/12/03 03:33:09;;;;;;;65.83;40.80;;;;;;;;;;5039267;28;20222;-61
2020/12/03 03:35:34;;;;;;;70.70;42.93;;;;;;;;;;5039936;28;20211;-61
2020/12/03 03:38:00;;;;;;;78.10;43.40;;;;;;;;;;5039294;28;20254;-62
2020/12/03 03:40:25;;;;;;;75.83;45.93;;;;;;;;;;5039493;28;20225;-61
2020/12/03 03:42:51;;;;;;;75.90;43.40;;;;;;;;;;5038477;28;20654;-61
2020/12/03 03:45:16;;;;;;;74.63;45.07;;;;;;;;;;5021347;28;20224;-62
2020/12/03 03:47:41;;;;;;;76.40;44.37;;;;;;;;;;5039317;28;20301;-61
2020/12/03 03:50:07;;;;;;;74.43;43.57;;;;;;;;;;5038894;28;20643;-61
2020/12/03 03:52:34;;;;;;;77.93;45.33;;;;;;;;;;5039684;28;20216;-61
2020/12/03 03:54:59;;;;;;;79.83;46.33;;;;;;;;;;5039328;28;20467;-61
2020/12/03 03:57:25;;;;;;;73.43;44.67;;;;;;;;;;5039600;28;20465;-61
2020/12/03 03:59:50;;;;;;;77.07;45.30;;;;;;;;;;5039718;28;20246;-61
2020/12/03 04:02:20;;;;;;;76.67;46.83;;;;;;;;;;5056330;28;20720;-61
2020/12/03 04:04:46;;;;;;;71.40;44.60;;;;;;;;;;5059239;28;20214;-61
2020/12/03 04:07:12;;;;;;;74.63;44.77;;;;;;;;;;5059128;28;20482;-61
2020/12/03 04:09:38;;;;;;;73.30;43.97;;;;;;;;;;5058095;28;20458;-61
2020/12/03 04:12:03;;;;;;;73.07;43.13;;;;;;;;;;5058573;28;20234;-61
2020/12/03 04:14:29;;;;;;;77.70;48.70;;;;;;;;;;5059149;28;20459;-61
2020/12/03 04:16:54;;;;;;;77.43;46.17;;;;;;;;;;5058462;28;20250;-62
2020/12/03 04:19:19;;;;;;;84.13;48.83;;;;;;;;;;5058618;28;20236;-61
2020/12/03 04:21:45;;;;;;;73.77;44.93;;;;;;;;;;5059477;28;20718;-62
2020/12/03 04:24:10;;;;;;;77.13;45.50;;;;;;;;;;5044843;28;20214;-62
2020/12/03 04:26:35;;;;;;;83.50;45.27;;;;;;;;;;5038969;28;20231;-62
2020/12/03 04:29:00;;;;;;;84.87;48.77;;;;;;;;;;5037287;28;20240;-61
2020/12/03 04:31:26;;;;;;;76.57;45.77;;;;;;;;;;5039312;28;20237;-61
2020/12/03 04:33:51;;;;;;;85.23;47.30;;;;;;;;;;5038270;28;20601;-61
2020/12/03 04:36:16;;;;;;;75.47;44.43;;;;;;;;;;5037889;28;20276;-61
2020/12/03 04:38:42;;;;;;;75.87;44.90;;;;;;;;;;5038608;28;20544;-61
2020/12/03 04:41:08;;;;;;;86.27;49.00;;;;;;;;;;5037868;28;20243;-62
2020/12/03 04:43:40;;;;;;;79.43;46.20;;;;;;;;;;5037331;28;20245;-62
2020/12/03 04:46:30;;;;;;;84.40;47.07;;;;;;;;;;5021119;28;20460;-62
2020/12/03 04:49:24;;;;;;;76.90;45.40;;;;;;;;;;5037982;28;20778;-62
2020/12/03 04:52:23;;;;;;;81.07;45.60;;;;;;;;;;5037271;28;20462;-60
2020/12/03 04:55:24;;;;;;;81.23;47.10;;;;;;;;;;5037502;28;20462;-61
2020/12/03 04:58:16;;;;;;;77.57;46.47;;;;;;;;;;5049436;28;20459;-62
2020/12/03 05:00:48;;;;;;;86.43;47.80;;;;;;;;;;5038644;28;20467;-63
2020/12/03 05:03:40;;;;;;;77.30;44.57;;;;;;;;;;5036345;28;20446;-62
2020/12/03 05:06:34;;;;;;;82.23;47.20;;;;;;;;;;5052451;28;20632;-62
2020/12/03 05:09:04;;;;;;;93.43;48.40;;;;;;;;;;5048657;28;20461;-61
2020/12/03 05:11:40;;;;;;;79.53;45.90;;;;;;;;;;5056671;28;20932;-62
2020/12/03 05:14:12;;;;;;;82.97;47.83;;;;;;;;;;5044862;28;20453;-62
2020/12/03 05:16:50;;;;;;;75.93;46.37;;;;;;;;;;5036801;28;20473;-62
2020/12/03 05:19:23;;;;;;;80.07;45.63;;;;;;;;;;5036664;28;20454;-62
2020/12/03 05:21:49;;;;;;;81.20;45.90;;;;;;;;;;5020485;28;20473;-62
2020/12/03 05:24:14;;;;;;;77.00;45.47;;;;;;;;;;5052139;28;20450;-62
2020/12/03 05:26:39;;;;;;;82.30;46.97;;;;;;;;;;5057746;28;20224;-62
2020/12/03 05:29:07;;;;;;;85.00;46.17;;;;;;;;;;5057623;28;20252;-61
2020/12/03 05:31:42;;;;;;;89.03;49.20;;;;;;;;;;5042354;28;20536;-62
2020/12/03 05:34:11;;;;;;;76.17;45.13;;;;;;;;;;5037098;28;20450;-63
2020/12/03 05:36:42;;;;;;;78.07;45.20;;;;;;;;;;5037815;28;20491;-61
2020/12/03 05:39:13;;;;;;;85.47;46.13;;;;;;;;;;5036058;28;20481;-61
2020/12/03 05:41:45;;;;;;;75.30;44.80;;;;;;;;;;5037814;28;20457;-60
2020/12/03 05:44:40;;;;;;;77.60;47.17;;;;;;;;;;5037187;28;20534;-61
2020/12/03 05:47:27;;;;;;;72.30;43.13;;;;;;;;;;5036487;28;20830;-61
2020/12/03 05:49:59;;;;;;;82.50;47.37;;;;;;;;;;5037469;28;20485;-61
2020/12/03 05:52:26;;;;;;;75.43;44.00;;;;;;;;;;5036814;28;20482;-62
2020/12/03 05:55:04;;;;;;;77.23;45.70;;;;;;;;;;5036949;28;20495;-62
2020/12/03 05:57:39;;;;;;;81.53;45.30;;;;;;;;;;5052173;28;20450;-61
2020/12/03 06:00:14;;;;;;;76.50;43.70;;;;;;;;;;5056819;28;20468;-62
2020/12/03 06:03:13;;;;;;;80.67;42.60;;;;;;;;;;5037001;28;20460;-62
2020/12/03 06:05:47;;;;;;;81.80;44.77;;;;;;;;;;5037382;28;20860;-62
2020/12/03 06:08:45;;;;;;;72.20;42.73;;;;;;;;;;5039155;28;20446;-62
2020/12/03 06:11:29;;;;;;;77.50;42.03;;;;;;;;;;5038688;28;20784;-61
2020/12/03 06:14:04;;;;;;;71.80;40.93;;;;;;;;;;5039870;28;20539;-61
2020/12/03 06:16:55;;;;;;;74.47;44.97;;;;;;;;;;5040491;28;20470;-61
2020/12/03 06:19:33;;;;;;;69.33;43.77;;;;;;;;;;5039871;28;20468;-61
2020/12/03 06:22:02;;;;;;;76.67;43.10;;;;;;;;;;5023855;28;20545;-61
2020/12/03 06:25:07;;;;;;;71.70;43.83;;;;;;;;;;5052906;28;20941;-61
2020/12/03 06:27:45;;;;;;;72.70;43.67;;;;;;;;;;5040482;28;20501;-60
2020/12/03 06:30:19;;;;;;;73.40;42.00;;;;;;;;;;5039774;28;20767;-60
2020/12/03 06:33:23;;;;;;;72.83;44.07;;;;;;;;;;5039673;28;20484;-61
2020/12/03 06:36:15;;;;;;;77.83;43.90;;;;;;;;;;5031191;28;20452;-62
2020/12/03 06:39:03;;;;;;;75.40;42.63;;;;;;;;;;5039565;28;20524;-60
2020/12/03 06:41:52;;;;;;;68.13;42.33;;;;;;;;;;5039529;28;20450;-62
2020/12/03 06:44:32;;;;;;;85.43;44.70;;;;;;;;;;5039626;28;20948;-62
2020/12/03 06:47:26;;;;;;;73.90;44.27;;;;;;;;;;5040741;28;20449;-63
2020/12/03 06:50:10;;;;;;;69.90;44.40;;;;;;;;;;5040603;28;20463;-61
2020/12/03 06:52:46;;;;;;;67.90;41.03;;;;;;;;;;5039109;28;20464;-62
2020/12/03 06:55:38;;;;;;;73.17;40.40;;;;;;;;;;5039302;28;20463;-65
2020/12/03 06:58:28;;;;;;;75.50;43.00;;;;;;;;;;5058416;28;20520;-60
2020/12/03 07:01:36;;;;;;;79.23;43.90;;;;;;;;;;5066868;28;20466;-61
2020/12/03 07:04:39;;;;;;;80.13;44.30;;;;;;;;;;5075992;28;20433;-62
2020/12/03 07:07:10;;;;;;;73.40;42.60;;;;;;;;;;5067272;28;20434;-61
2020/12/03 07:10:16;;;;;;;66.60;40.70;;;;;;;;;;5064979;28;20457;-63
2020/12/03 07:13:19;;;;;;;73.10;43.63;;;;;;;;;;5041526;28;20453;-63
2020/12/03 07:16:21;;;;;;;67.40;41.30;;;;;;;;;;5068523;28;20516;-63
2020/12/03 07:18:58;;;;;;;72.80;40.70;;;;;;;;;;5078516;28;20474;-62
2020/12/03 07:21:43;;;;;;;71.37;41.57;;;;;;;;;;5078618;28;20457;-62
2020/12/03 07:24:23;;;;;;;78.97;42.53;;;;;;;;;;5065378;28;20463;-63
2020/12/03 07:27:07;;;;;;;67.70;41.07;;;;;;;;;;5053745;28;20769;-63
2020/12/03 07:29:41;;;;;;;71.33;42.27;;;;;;;;;;5048181;28;20454;-64
2020/12/03 07:32:19;;;;;;;72.70;41.17;;;;;;;;;;5045474;28;20481;-65
2020/12/03 07:34:52;;;;;;;61.43;38.67;;;;;;;;;;5076002;28;20983;-68
2020/12/03 07:37:32;;;;;;;67.90;41.17;;;;;;;;;;5038445;28;20463;-67
2020/12/03 07:39:57;;;;;;;72.67;41.00;;;;;;;;;;5038129;28;20453;-66
2020/12/03 07:42:23;;;;;;;69.67;42.33;;;;;;;;;;5038335;28;20461;-63
2020/12/03 07:44:53;;;;;;;66.60;40.63;;;;;;;;;;5038836;28;20227;-62
2020/12/03 07:47:30;;;;;;;70.10;42.60;;;;;;;;;;5038963;28;20222;-63
2020/12/03 07:49:56;;;;;;;69.10;40.33;;;;;;;;;;5048787;28;20455;-63
2020/12/03 07:52:33;;;;;;;72.17;40.47;;;;;;;;;;5070562;28;20473;-62
2020/12/03 07:55:20;;;;;;;65.47;40.30;;;;;;;;;;5058318;28;20465;-62
2020/12/03 07:57:57;;;;;;;76.80;42.13;;;;;;;;;;5053451;28;20516;-63
2020/12/03 08:00:34;;;;;;;74.03;39.87;;;;;;;;;;5061466;28;20857;-63
2020/12/03 08:03:01;;;;;;;73.63;42.13;;;;;;;;;;5058771;28;20523;-62
2020/12/03 08:06:14;;;;;;;66.73;41.07;;;;;;;;;;5058940;28;20448;-62
2020/12/03 08:08:41;;;;;;;70.83;38.57;;;;;;;;;;5053211;28;20452;-63
2020/12/03 08:11:35;;;;;;;82.20;43.30;;;;;;;;;;5057820;28;20471;-62
2020/12/03 08:14:00;;;;;;;71.03;41.20;;;;;;;;;;5057886;28;20458;-62
2020/12/03 08:16:43;;;;;;;71.90;39.30;;;;;;;;;;5057413;28;20470;-63
2020/12/03 08:19:17;;;;;;;64.23;38.37;;;;;;;;;;5058392;28;20235;-64
2020/12/03 08:21:43;;;;;;;60.73;36.70;;;;;;;;;;5057189;28;20532;-64
2020/12/03 08:24:25;;;;;;;69.47;40.00;;;;;;;;;;5054689;28;20990;-64
2020/12/03 08:26:58;;;;;;;71.97;40.93;;;;;;;;;;5058639;28;20215;-64
2020/12/03 08:29:38;;;;;;;63.57;40.90;;;;;;;;;;5058018;28;20950;-64
2020/12/03 08:32:03;;;;;;;60.23;38.47;;;;;;;;;;5057168;28;20588;-62
2020/12/03 08:34:35;;;;;;;61.97;37.85;;;;;;;;;;5057817;28;20445;-62
2020/12/03 08:37:02;;;;;;;68.73;38.07;;;;;;;;;;5057861;28;20218;-63
2020/12/03 08:39:28;;;;;;;59.13;37.43;;;;;;;;;;5057842;28;20958;-64
2020/12/03 08:41:53;;;;;;;64.37;40.53;;;;;;;;;;5057336;28;20509;-63
2020/12/03 08:44:19;;;;;;;60.97;37.27;;;;;;;;;;5057542;28;20450;-63
2020/12/03 08:46:45;;;;;;;63.13;37.57;;;;;;;;;;5056501;28;20215;-63
2020/12/03 08:49:18;;;;;;;68.63;37.00;;;;;;;;;;5056463;28;20841;-62
2020/12/03 08:51:48;;;;;;;55.00;36.97;;;;;;;;;;5057597;28;20610;-64
2020/12/03 08:54:13;;;;;;;59.93;38.00;;;;;;;;;;5056892;28;20517;-62
2020/12/03 08:56:39;;;;;;;64.73;37.03;;;;;;;;;;5057536;28;20474;-63
2020/12/03 08:59:10;;;;;;;58.73;35.67;;;;;;;;;;5056827;28;20289;-63
2020/12/03 09:01:37;;;;;;;56.20;33.93;;;;;;;;;;5056467;28;20452;-63
2020/12/03 09:04:03;;;;;;;52.73;33.80;;;;;;;;;;5056991;28;20930;-63
2020/12/03 09:06:33;;;;;;;56.70;35.47;;;;;;;;;;5057131;28;20533;-65
2020/12/03 09:09:00;;;;;;;58.93;35.83;;;;;;;;;;5057557;28;20514;-63
2020/12/03 09:11:25;;;;;;;56.17;35.20;;;;;;;;;;5055711;28;20458;-63
2020/12/03 09:13:57;;;;;;;60.47;35.53;;;;;;;;;;5057473;28;20454;-63
2020/12/03 09:16:25;;;;;;;64.07;36.17;;;;;;;;;;5056089;28;20254;-62
2020/12/03 09:18:50;;;;;;;60.57;36.23;;;;;;;;;;5056202;28;20807;-63
2020/12/03 09:21:24;;;;;;;58.20;36.00;;;;;;;;;;5056461;28;20462;-62
2020/12/03 09:23:50;;;;;;;59.37;35.03;;;;;;;;;;5045422;28;20279;-64
2020/12/03 09:26:21;;;;;;;60.43;35.70;;;;;;;;;;5035796;28;20467;-63
2020/12/03 09:28:48;;;;;;;65.60;37.83;;;;;;;;;;5036247;28;20537;-63
2020/12/03 09:31:13;;;;;;;51.77;34.53;;;;;;;;;;5047874;28;20847;-62
2020/12/03 09:33:43;;;;;;;58.30;37.37;;;;;;;;;;5056133;28;20502;-64
2020/12/03 09:36:10;;;;;;;60.93;35.17;;;;;;;;;;5055889;28;20219;-62
2020/12/03 09:38:35;;;;;;;54.47;33.77;;;;;;;;;;5055992;28;20473;-63
2020/12/03 09:41:01;;;;;;;57.40;34.33;;;;;;;;;;5055609;28;20846;-63
2020/12/03 09:43:26;;;;;;;56.93;36.77;;;;;;;;;;5055580;28;20278;-62
2020/12/03 09:45:55;;;;;;;56.90;35.87;;;;;;;;;;5055557;28;20232;-64
2020/12/03 09:48:20;;;;;;;57.03;35.17;;;;;;;;;;5055373;28;20310;-63
2020/12/03 09:50:48;;;;;;;50.90;34.50;;;;;;;;;;5055467;28;20471;-64
2020/12/03 09:53:18;;;;;;;57.30;32.77;;;;;;;;;;5055991;28;20215;-63
2020/12/03 09:55:44;;;;;;;54.63;35.90;;;;;;;;;;5056435;28;20483;-63
2020/12/03 09:58:09;;;;;;;55.27;33.13;;;;;;;;;;5055472;28;20460;-63
2020/12/03 10:00:39;;;;;;;54.60;32.40;;;;;;;;;;5056490;28;20462;-63
2020/12/03 10:03:05;;;;;;;49.40;31.80;;;;;;;;;;5055405;28;20250;-63
2020/12/03 10:05:38;;;;;;;54.77;33.47;;;;;;;;;;5042855;28;20451;-64
2020/12/03 10:08:17;;;;;;;48.10;30.77;;;;;;;;;;5036599;28;20218;-63
2020/12/03 10:11:09;;;;;;;51.93;30.60;;;;;;;;;;5035605;28;20470;-63
2020/12/03 10:13:52;;;;;;;58.90;33.30;;;;;;;;;;5035541;28;20836;-63
2020/12/03 10:16:21;;;;;;;54.37;32.03;;;;;;;;;;5035755;28;20471;-62
2020/12/03 10:18:54;;;;;;;43.13;31.40;;;;;;;;;;5036251;28;20453;-63
2020/12/03 10:21:21;;;;;;;47.70;31.57;;;;;;;;;;5036835;28;20555;-63
2020/12/03 10:24:14;;;;;;;52.80;31.63;;;;;;;;;;5046205;28;20454;-63
2020/12/03 10:27:24;;;;;;;55.23;30.47;;;;;;;;;;5055767;28;20459;-63
2020/12/03 10:29:55;;;;;;;46.10;31.47;;;;;;;;;;5054551;28;20847;-62
2020/12/03 10:32:21;;;;;;;45.27;31.60;;;;;;;;;;5035178;28;20458;-63
2020/12/03 10:34:47;;;;;;;48.63;30.27;;;;;;;;;;5034799;28;20471;-63
2020/12/03 10:37:22;;;;;;;40.40;28.97;;;;;;;;;;5036789;28;20788;-62
2020/12/03 10:39:52;;;;;;;50.97;30.67;;;;;;;;;;5035725;28;20497;-63
2020/12/03 10:42:19;;;;;;;44.30;30.70;;;;;;;;;;5036082;28;20468;-63
2020/12/03 10:44:47;;;;;;;44.70;30.30;;;;;;;;;;5042638;28;20459;-63
2020/12/03 10:47:14;;;;;;;46.27;29.80;;;;;;;;;;5055260;28;20450;-63
2020/12/03 10:49:41;;;;;;;47.20;29.40;;;;;;;;;;5054696;28;20479;-63
2020/12/03 10:52:07;;;;;;;44.30;28.00;;;;;;;;;;5055584;28;20556;-66
2020/12/03 10:54:33;;;;;;;44.90;28.90;;;;;;;;;;5058818;28;20776;-64
2020/12/03 10:57:03;;;;;;;42.50;29.00;;;;;;;;;;5059414;28;20466;-62
2020/12/03 10:59:46;;;;;;;48.50;30.20;;;;;;;;;;5059234;28;20224;-63
2020/12/03 11:02:19;;;;;;;45.33;28.77;;;;;;;;;;5059083;28;20467;-63
2020/12/03 11:04:44;;;;;;;45.17;29.87;;;;;;;;;;5059149;28;20835;-63
2020/12/03 11:07:12;;;;;;;47.47;28.17;;;;;;;;;;5058570;28;20456;-62
2020/12/03 11:09:38;;;;;;;45.40;28.50;;;;;;;;;;5059449;28;20296;-63
2020/12/03 11:12:08;;;;;;;45.33;29.40;;;;;;;;;;5059485;28;20907;-63
2020/12/03 11:14:34;;;;;;;48.93;28.60;;;;;;;;;;5058798;28;20220;-63
2020/12/03 11:17:04;;;;;;;44.97;28.00;;;;;;;;;;5059322;28;20763;-62
2020/12/03 11:19:33;;;;;;;45.87;29.17;;;;;;;;;;5057830;28;20227;-63
2020/12/03 11:22:10;;;;;;;42.17;29.20;;;;;;;;;;5058124;28;20472;-64
2020/12/03 11:24:48;;;;;;;48.57;29.90;;;;;;;;;;5041238;28;20452;-63
2020/12/03 11:27:18;;;;;;;44.73;30.87;;;;;;;;;;5038408;28;20756;-63
2020/12/03 11:29:43;;;;;;;48.20;28.90;;;;;;;;;;5039245;28;20504;-63
2020/12/03 11:32:08;;;;;;;50.10;31.50;;;;;;;;;;5038657;28;20473;-64
2020/12/03 11:34:38;;;;;;;40.70;29.53;;;;;;;;;;5038381;28;20611;-63
2020/12/03 11:37:04;;;;;;;47.20;30.07;;;;;;;;;;5038967;28;20221;-64
2020/12/03 11:39:30;;;;;;;40.13;28.13;;;;;;;;;;5037916;28;20788;-63
2020/12/03 11:50:17;;;;;;;51.53;30.40;;;;;;;;;;5058418;28;20549;-63
2020/12/03 11:52:42;;;;;;;45.97;29.87;;;;;;;;;;5058297;28;20447;-63
2020/12/03 11:55:17;;;;;;;44.00;27.67;;;;;;;;;;5058241;28;20470;-62
2020/12/03 11:57:43;;;;;;;40.07;27.67;;;;;;;;;;5064248;28;20220;-63
2020/12/03 12:00:15;;;;;;;45.00;29.47;;;;;;;;;;5077513;28;20533;-63
2020/12/03 12:02:41;;;;;;;59.27;37.20;;;;;;;;;;5078281;28;20219;-62
2020/12/03 12:05:13;;;;;;;50.40;31.33;;;;;;;;;;5066634;28;20460;-63
2020/12/03 12:07:50;;;;;;;38.73;27.60;;;;;;;;;;5058514;28;20226;-62
2020/12/03 12:10:22;;;;;;;36.40;26.17;;;;;;;;;;5057835;28;20448;-63
2020/12/03 12:12:47;;;;;;;44.60;29.10;;;;;;;;;;5058405;28;20559;-63
2020/12/03 12:15:13;;;;;;;41.17;26.40;;;;;;;;;;5057921;28;20539;-64
2020/12/03 12:17:39;;;;;;;39.87;26.80;;;;;;;;;;5057618;28;20285;-63
2020/12/03 12:20:09;;;;;;;41.47;28.30;;;;;;;;;;5057426;28;20236;-63
2020/12/03 12:22:35;;;;;;;37.43;26.73;;;;;;;;;;5056779;28;20485;-64
2020/12/03 12:25:01;;;;;;;41.13;28.67;;;;;;;;;;5036828;28;20465;-64
2020/12/03 12:27:26;;;;;;;39.40;26.83;;;;;;;;;;5037357;28;20461;-63
2020/12/03 12:29:52;;;;;;;37.90;25.20;;;;;;;;;;5036716;28;20237;-63
2020/12/03 12:32:17;;;;;;;38.70;25.43;;;;;;;;;;5036834;28;20647;-63
2020/12/03 12:34:45;;;;;;;41.07;26.57;;;;;;;;;;5037162;28;20229;-63
2020/12/03 12:37:11;;;;;;;41.47;27.57;;;;;;;;;;5036984;28;20210;-63
2020/12/03 12:39:38;;;;;;;44.03;28.40;;;;;;;;;;5036209;28;20595;-63
2020/12/03 12:42:05;;;;;;;37.80;24.40;;;;;;;;;;5037567;28;20527;-63
2020/12/03 12:44:30;;;;;;;41.10;26.60;;;;;;;;;;5042472;28;20473;-62
2020/12/03 12:46:57;;;;;;;33.70;25.67;;;;;;;;;;5055789;28;20459;-64
2020/12/03 12:49:22;;;;;;;35.17;24.80;;;;;;;;;;5056857;28;20548;-63
2020/12/03 12:51:47;;;;;;;37.17;24.63;;;;;;;;;;5056928;28;20456;-63
2020/12/03 12:54:17;;;;;;;38.70;25.10;;;;;;;;;;5056324;28;20300;-63
2020/12/03 12:56:45;;;;;;;35.70;24.47;;;;;;;;;;5051003;28;20205;-63
2020/12/03 12:59:11;;;;;;;37.53;25.83;;;;;;;;;;5072970;28;20520;-63
2020/12/03 13:01:36;;;;;;;40.20;26.07;;;;;;;;;;5076504;28;20756;-63
2020/12/03 13:04:02;;;;;;;38.30;25.10;;;;;;;;;;5074513;28;20561;-63
2020/12/03 13:06:27;;;;;;;36.70;24.60;;;;;;;;;;5056580;28;20209;-63
2020/12/03 13:08:52;;;;;;;35.43;24.17;;;;;;;;;;5056518;28;20303;-63
2020/12/03 13:11:17;;;;;;;36.80;23.80;;;;;;;;;;5055844;28;20653;-63
2020/12/03 13:13:43;;;;;;;40.70;25.27;;;;;;;;;;5056422;28;20343;-62
2020/12/03 13:16:08;;;;;;;36.40;24.27;;;;;;;;;;5055855;28;20234;-63
2020/12/03 13:18:33;;;;;;;34.73;24.00;;;;;;;;;;5056094;28;20309;-63
2020/12/03 13:20:59;;;;;;;39.50;24.10;;;;;;;;;;5056279;28;20233;-63
2020/12/03 13:23:24;;;;;;;33.20;23.20;;;;;;;;;;5048480;28;20210;-64
2020/12/03 13:25:49;;;;;;;33.50;24.00;;;;;;;;;;5036271;28;20260;-63
2020/12/03 13:28:15;;;;;;;36.80;25.43;;;;;;;;;;5035962;28;20223;-64
2020/12/03 13:30:40;;;;;;;34.20;24.10;;;;;;;;;;5036515;28;20570;-63
2020/12/03 13:33:05;;;;;;;37.40;25.70;;;;;;;;;;5036071;28;20221;-64
2020/12/03 13:35:30;;;;;;;43.50;27.33;;;;;;;;;;5036338;28;20630;-62
2020/12/03 13:37:56;;;;;;;40.60;26.17;;;;;;;;;;5036035;28;20331;-63
2020/12/03 13:40:22;;;;;;;42.33;28.27;;;;;;;;;;5035989;28;20221;-63
2020/12/03 13:42:48;;;;;;;36.53;25.13;;;;;;;;;;5035915;28;20577;-64
2020/12/03 13:45:14;;;;;;;36.23;25.17;;;;;;;;;;5046585;28;20455;-63
2020/12/03 13:47:39;;;;;;;35.00;24.13;;;;;;;;;;5056454;28;20212;-64
2020/12/03 13:50:04;;;;;;;38.40;24.63;;;;;;;;;;5054411;28;20304;-62
2020/12/03 13:52:29;;;;;;;31.93;23.93;;;;;;;;;;5056272;28;20294;-62
2020/12/03 13:54:55;;;;;;;35.97;25.37;;;;;;;;;;5056202;28;20292;-63
2020/12/03 13:57:20;;;;;;;42.07;25.93;;;;;;;;;;5058845;28;20285;-62
2020/12/03 13:59:45;;;;;;;40.87;25.93;;;;;;;;;;5076487;28;20584;-63
2020/12/03 14:02:14;;;;;;;36.03;23.40;;;;;;;;;;5075778;28;20371;-63
2020/12/03 14:04:40;;;;;;;41.23;25.10;;;;;;;;;;5069458;28;20299;-62
2020/12/03 14:07:05;;;;;;;35.57;25.33;;;;;;;;;;5055668;28;20515;-63
2020/12/03 14:09:30;;;;;;;38.57;25.10;;;;;;;;;;5055910;28;20608;-63
2020/12/03 14:11:56;;;;;;;35.30;24.73;;;;;;;;;;5056082;28;20228;-63
2020/12/03 14:14:21;;;;;;;36.60;24.57;;;;;;;;;;5056099;28;20308;-63
2020/12/03 14:16:46;;;;;;;40.13;26.57;;;;;;;;;;5054629;28;20217;-63
2020/12/03 14:19:12;;;;;;;46.80;29.57;;;;;;;;;;5055334;28;20406;-63
2020/12/03 14:21:37;;;;;;;41.77;24.80;;;;;;;;;;5055733;28;20572;-62
2020/12/03 14:24:02;;;;;;;32.67;24.20;;;;;;;;;;5042571;28;20217;-63
2020/12/03 14:26:28;;;;;;;41.57;25.33;;;;;;;;;;5036165;28;20210;-62
2020/12/03 14:28:53;;;;;;;40.50;25.63;;;;;;;;;;5037462;28;20630;-64
2020/12/03 14:31:18;;;;;;;36.40;25.67;;;;;;;;;;5037837;28;20231;-63
2020/12/03 14:33:44;;;;;;;41.17;28.10;;;;;;;;;;5039169;28;20221;-63
2020/12/03 14:36:09;;;;;;;37.90;25.83;;;;;;;;;;5039393;28;20526;-63
2020/12/03 14:38:34;;;;;;;36.00;24.40;;;;;;;;;;5039762;28;20236;-63
2020/12/03 14:40:59;;;;;;;32.67;24.77;;;;;;;;;;5039645;28;20658;-63
2020/12/03 14:43:25;;;;;;;38.17;26.43;;;;;;;;;;5038795;28;20223;-63